Time;durP1;ratioP1;P1;durP2;ratioP2;P2;SDS_P1;SDS_P2;PMS_P1;PMS_P2;Temp;Humidity;BMP_temperature;BMP_pressure;BME280_temperature;BME280_humidity;BME280_pressure;Samples;Min_cycle;Max_cycle;Signal;HPM_P1;HPM_P2
2023/10/28 00:00:31;;;;;;;5.18;1.40;;;;;;;20.58;68.46;93618.16;5070549;28;20202;-44
2023/10/28 00:02:58;;;;;;;2.45;1.70;;;;;;;20.63;68.21;93626.84;5070660;28;20697;-45
2023/10/28 00:05:25;;;;;;;3.50;1.60;;;;;;;20.65;68.13;93624.84;5070642;28;20206;-44
2023/10/28 00:07:52;;;;;;;4.18;1.65;;;;;;;20.66;68.02;93625.63;5070514;28;20262;-45
2023/10/28 00:10:21;;;;;;;4.05;1.77;;;;;;;20.66;67.86;93625.63;5070140;28;20216;-43
2023/10/28 00:12:49;;;;;;;2.70;1.25;;;;;;;20.66;67.96;93636.00;5070596;28;20194;-44
2023/10/28 00:15:18;;;;;;;3.78;1.50;;;;;;;20.69;68.05;93627.78;5069732;28;20263;-43
2023/10/28 00:17:47;;;;;;;2.92;1.50;;;;;;;20.68;68.03;93629.59;5070067;28;20225;-43
2023/10/28 00:20:17;;;;;;;2.15;1.52;;;;;;;20.64;68.06;93627.63;5070315;28;20222;-44
2023/10/28 00:22:44;;;;;;;2.78;1.70;;;;;;;20.67;68.12;93640.19;5069749;28;20277;-44
2023/10/28 00:25:12;;;;;;;1.85;1.30;;;;;;;20.66;68.55;93628.22;5069847;28;20190;-44
2023/10/28 00:27:40;;;;;;;4.47;1.90;;;;;;;20.58;68.55;93612.97;5069857;28;20222;-45
2023/10/28 00:30:09;;;;;;;1.92;1.58;;;;;;;20.24;68.52;93571.91;5069964;28;20571;-43
2023/10/28 00:32:37;;;;;;;2.20;1.70;;;;;;;20.62;68.75;93629.69;5070163;28;20570;-42
2023/10/28 00:35:05;;;;;;;1.95;1.40;;;;;;;20.61;68.91;93641.88;5070090;28;20213;-42
2023/10/28 00:37:31;;;;;;;5.63;1.70;;;;;;;20.59;69.00;93636.09;5069448;28;20550;-44
2023/10/28 00:39:58;;;;;;;2.97;1.23;;;;;;;20.59;69.32;93646.50;5070002;28;20201;-44
2023/10/28 00:42:25;;;;;;;1.60;1.50;;;;;;;20.55;69.43;93645.34;5071104;28;20193;-45
2023/10/28 00:44:55;;;;;;;4.15;1.88;;;;;;;20.52;69.33;93638.03;5075632;28;20560;-45
2023/10/28 00:47:23;;;;;;;3.30;1.63;;;;;;;20.45;70.07;93645.09;5071730;28;20261;-43
2023/10/28 00:49:50;;;;;;;2.53;1.77;;;;;;;20.37;70.36;93635.81;5069607;28;20273;-43
2023/10/28 00:52:19;;;;;;;1.83;1.48;;;;;;;20.42;70.34;93656.75;5069554;28;20252;-43
2023/10/28 00:54:48;;;;;;;2.80;1.50;;;;;;;20.41;70.02;93655.13;5069549;28;20192;-43
2023/10/28 00:57:16;;;;;;;1.80;1.45;;;;;;;20.38;70.53;93642.63;5069680;28;20222;-43
2023/10/28 00:59:43;;;;;;;2.60;1.58;;;;;;;20.34;70.71;93644.09;5069962;28;20187;-44
2023/10/28 01:02:13;;;;;;;3.45;1.60;;;;;;;20.36;70.95;93649.03;5069743;28;20191;-43
2023/10/28 01:04:40;;;;;;;2.85;1.77;;;;;;;20.32;71.10;93645.31;5069565;28;20186;-44
2023/10/28 01:07:07;;;;;;;4.07;1.90;;;;;;;20.29;71.21;93649.94;5069175;28;20209;-45
2023/10/28 01:09:45;;;;;;;3.15;1.60;;;;;;;20.02;71.41;93623.56;5069372;28;20190;-44
2023/10/28 01:12:13;;;;;;;6.40;2.10;;;;;;;20.23;72.24;93663.00;5069552;28;20282;-44
2023/10/28 01:14:40;;;;;;;3.08;1.60;;;;;;;20.17;72.07;93656.13;5069392;28;20275;-44
2023/10/28 01:17:07;;;;;;;2.30;1.90;;;;;;;20.12;72.45;93646.41;5068921;28;20636;-44
2023/10/28 01:19:35;;;;;;;3.10;1.88;;;;;;;20.09;72.85;93651.25;5069155;28;20244;-44
2023/10/28 01:22:05;;;;;;;3.83;1.92;;;;;;;20.07;73.25;93645.47;5069276;28;20183;-44
2023/10/28 01:24:32;;;;;;;6.15;2.25;;;;;;;19.93;73.42;93637.88;5068877;28;20190;-44
2023/10/28 01:27:00;;;;;;;2.38;1.90;;;;;;;19.95;74.00;93654.03;5068597;28;20222;-44
2023/10/28 01:29:28;;;;;;;5.32;1.90;;;;;;;19.92;74.22;93664.06;5069357;28;20218;-45
2023/10/28 01:31:55;;;;;;;4.13;1.92;;;;;;;19.90;74.63;93661.66;5068758;28;20197;-45
2023/10/28 01:34:22;;;;;;;8.23;2.90;;;;;;;19.87;74.66;93664.72;5068824;28;20510;-44
2023/10/28 01:36:49;;;;;;;5.13;2.05;;;;;;;19.84;75.23;93651.38;5068863;28;20320;-45
2023/10/28 01:39:18;;;;;;;6.75;2.45;;;;;;;19.86;75.08;93650.16;5068571;28;20223;-44
2023/10/28 01:41:45;;;;;;;6.40;2.17;;;;;;;19.78;75.23;93655.66;5069061;28;20190;-44
2023/10/28 01:44:14;;;;;;;5.53;2.10;;;;;;;19.74;75.35;93657.91;5069086;28;20191;-44
2023/10/28 01:46:41;;;;;;;4.50;2.20;;;;;;;19.66;75.34;93645.22;5068969;28;20235;-43
2023/10/28 01:49:08;;;;;;;3.35;2.15;;;;;;;19.66;76.15;93654.81;5068663;28;20566;-44
2023/10/28 01:51:35;;;;;;;2.47;1.50;;;;;;;19.55;76.81;93651.91;5068954;28;20194;-46
2023/10/28 01:54:01;;;;;;;7.25;1.98;;;;;;;19.49;76.98;93645.00;5068591;28;20248;-44
2023/10/28 01:56:30;;;;;;;4.95;2.15;;;;;;;19.54;76.88;93646.94;5071050;28;20731;-44
2023/10/28 01:58:56;;;;;;;3.35;1.83;;;;;;;19.54;76.70;93659.91;5072906;28;20662;-44
2023/10/28 02:01:25;;;;;;;8.35;1.90;;;;;;;19.59;75.25;93654.84;5072677;28;20664;-44
2023/10/28 02:03:53;;;;;;;4.85;1.65;;;;;;;19.54;74.94;93654.72;5072571;28;20182;-43
2023/10/28 02:06:20;;;;;;;2.95;1.60;;;;;;;19.55;74.04;93653.69;5072666;28;20288;-43
2023/10/28 02:08:46;;;;;;;2.20;1.52;;;;;;;19.57;73.81;93669.06;5072587;28;20186;-45
2023/10/28 02:11:13;;;;;;;2.50;1.80;;;;;;;19.53;73.59;93663.50;5072940;28;20190;-44
2023/10/28 02:13:41;;;;;;;6.57;2.03;;;;;;;19.67;73.06;93682.31;5072844;28;20186;-44
2023/10/28 02:16:08;;;;;;;3.03;1.60;;;;;;;19.68;72.70;93676.91;5073155;28;20194;-44
2023/10/28 02:18:35;;;;;;;2.60;1.80;;;;;;;19.70;72.00;93679.31;5072496;28;20221;-44
2023/10/28 02:21:02;;;;;;;3.78;1.55;;;;;;;19.71;71.91;93686.84;5072400;28;20198;-45
2023/10/28 02:23:29;;;;;;;2.38;1.70;;;;;;;19.74;71.90;93683.84;5073144;28;20249;-43
2023/10/28 02:25:55;;;;;;;3.00;1.80;;;;;;;19.77;71.93;93690.38;5072736;28;20276;-45
2023/10/28 02:28:22;;;;;;;5.88;1.50;;;;;;;19.79;71.78;93691.75;5072350;28;20226;-44
2023/10/28 02:30:50;;;;;;;3.63;1.50;;;;;;;19.79;71.66;93691.75;5072436;28;20540;-42
2023/10/28 02:33:17;;;;;;;4.25;1.95;;;;;;;19.78;71.65;93691.97;5072433;28;20182;-44
2023/10/28 02:35:44;;;;;;;1.90;1.70;;;;;;;19.70;71.52;93682.69;5071762;28;20507;-44
2023/10/28 02:38:11;;;;;;;3.45;1.70;;;;;;;19.74;71.25;93678.66;5071853;28;20227;-45
2023/10/28 02:40:38;;;;;;;4.00;1.50;;;;;;;19.76;71.27;93688.78;5052247;28;20195;-43
2023/10/28 02:43:05;;;;;;;4.82;1.80;;;;;;;19.73;71.20;93684.84;5057014;28;20276;-43
2023/10/28 02:45:31;;;;;;;5.32;2.00;;;;;;;19.80;70.87;93674.38;5072232;28;20240;-46
2023/10/28 02:48:00;;;;;;;1.80;1.33;;;;;;;19.82;70.59;93677.56;5072362;28;20191;-44
2023/10/28 02:50:26;;;;;;;3.33;1.70;;;;;;;19.82;70.56;93676.75;5071700;28;20194;-44
2023/10/28 02:52:53;;;;;;;3.55;1.85;;;;;;;19.72;70.21;93672.88;5071754;28;20186;-43
2023/10/28 02:55:21;;;;;;;2.15;1.65;;;;;;;19.82;70.21;93692.31;5071497;28;20197;-44
2023/10/28 02:57:48;;;;;;;1.90;1.63;;;;;;;19.78;70.21;93697.16;5071661;28;20219;-44
2023/10/28 03:00:15;;;;;;;2.50;1.55;;;;;;;19.81;70.14;93699.31;5072043;28;20197;-44
2023/10/28 03:02:42;;;;;;;3.92;1.90;;;;;;;19.71;71.62;93696.44;5071664;28;20187;-44
2023/10/28 03:05:10;;;;;;;5.35;2.45;;;;;;;19.58;73.30;93697.38;5071770;28;20209;-45
2023/10/28 03:07:38;;;;;;;5.68;2.72;;;;;;;19.40;75.12;93698.16;5071032;28;20300;-45
2023/10/28 03:10:06;;;;;;;5.70;2.92;;;;;;;19.25;76.38;93702.91;5071156;28;20190;-44
2023/10/28 03:12:32;;;;;;;4.80;2.40;;;;;;;19.05;77.98;93708.28;5071717;28;20201;-45
2023/10/28 03:14:59;;;;;;;5.23;2.80;;;;;;;18.85;78.42;93694.72;5071671;28;20210;-45
2023/10/28 03:17:26;;;;;;;7.07;3.57;;;;;;;18.72;79.42;93706.78;5071217;28;20346;-44
2023/10/28 03:19:53;;;;;;;4.43;3.03;;;;;;;18.58;80.38;93704.47;5075069;28;20201;-44
2023/10/28 03:22:21;;;;;;;3.40;3.07;;;;;;;18.47;80.92;93701.56;5074564;28;20186;-44
2023/10/28 03:24:48;;;;;;;8.67;3.07;;;;;;;18.26;81.40;93692.34;5070948;28;20512;-44
2023/10/28 03:27:14;;;;;;;3.57;2.63;;;;;;;18.28;81.96;93711.03;5071136;28;20253;-44
2023/10/28 03:29:42;;;;;;;6.40;3.30;;;;;;;18.19;82.73;93717.47;5071360;28;20186;-44
2023/10/28 03:32:09;;;;;;;4.13;2.87;;;;;;;18.09;83.46;93731.84;5071381;28;20280;-45
2023/10/28 03:34:35;;;;;;;7.07;3.03;;;;;;;17.97;84.31;93729.94;5070723;28;20202;-44
2023/10/28 03:37:02;;;;;;;4.37;2.60;;;;;;;17.91;84.49;93732.53;5071183;28;20190;-45
2023/10/28 03:39:30;;;;;;;4.60;2.93;;;;;;;17.82;84.98;93721.63;5070480;28;20190;-43
2023/10/28 03:41:57;;;;;;;7.20;3.27;;;;;;;17.78;85.19;93731.59;5071301;28;20213;-44
2023/10/28 03:44:24;;;;;;;7.60;3.50;;;;;;;17.73;85.43;93728.81;5070756;28;20190;-43
2023/10/28 03:46:51;;;;;;;6.20;3.10;;;;;;;17.66;86.14;93735.81;5071691;28;20249;-46
2023/10/28 03:49:17;;;;;;;7.83;3.50;;;;;;;17.58;87.08;93737.84;5071587;28;20190;-44
2023/10/28 03:51:45;;;;;;;4.33;3.10;;;;;;;17.51;87.13;93741.22;5071312;28;20194;-44
2023/10/28 03:54:12;;;;;;;5.20;2.77;;;;;;;17.50;87.12;93734.47;5070588;28;20189;-45
2023/10/28 03:56:41;;;;;;;7.23;3.27;;;;;;;17.44;87.64;93732.69;5071500;28;20190;-43
2023/10/28 03:59:08;;;;;;;9.03;3.53;;;;;;;17.41;87.80;93740.06;5070946;28;20679;-43
2023/10/28 04:01:35;;;;;;;5.87;3.27;;;;;;;17.33;88.33;93735.91;5073293;28;20186;-44
2023/10/28 04:04:01;;;;;;;7.37;3.27;;;;;;;17.30;88.66;93747.41;5072278;28;20197;-52
2023/10/28 04:06:28;;;;;;;10.13;3.23;;;;;;;17.27;88.70;93744.44;5084566;28;20194;-43
2023/10/28 04:08:55;;;;;;;5.53;2.90;;;;;;;17.22;89.08;93754.59;5084766;28;21782;-44
2023/10/28 04:11:22;;;;;;;6.30;3.50;;;;;;;17.16;89.67;93758.00;5070371;28;20285;-44
2023/10/28 04:13:50;;;;;;;6.97;3.53;;;;;;;17.13;89.92;93756.59;5070315;28;20186;-44
2023/10/28 04:16:17;;;;;;;6.87;3.20;;;;;;;17.09;90.03;93746.88;5070459;28;20248;-43
2023/10/28 04:18:44;;;;;;;6.17;3.37;;;;;;;17.07;90.22;93754.81;5069620;28;20231;-43
2023/10/28 04:21:11;;;;;;;4.03;2.77;;;;;;;17.04;90.45;93762.97;5069593;28;20303;-44
2023/10/28 04:23:38;;;;;;;10.30;3.03;;;;;;;17.01;90.67;93760.78;5070737;28;20251;-43
2023/10/28 04:26:05;;;;;;;5.90;3.73;;;;;;;16.97;91.03;93765.56;5070620;28;20568;-44
2023/10/28 04:28:32;;;;;;;7.13;3.23;;;;;;;16.93;91.55;93759.22;5070826;28;20706;-44
2023/10/28 04:31:00;;;;;;;3.90;2.70;;;;;;;16.97;91.30;93767.34;5070322;28;20200;-44
2023/10/28 04:33:27;;;;;;;4.97;2.90;;;;;;;16.97;91.21;93767.34;5070413;28;20596;-43
2023/10/28 04:35:54;;;;;;;6.40;3.33;;;;;;;16.95;91.35;93772.69;5070251;28;20667;-44
2023/10/28 04:38:21;;;;;;;5.50;3.07;;;;;;;16.93;91.43;93777.28;5069771;28;20214;-45
2023/10/28 04:40:48;;;;;;;3.80;2.93;;;;;;;16.91;91.78;93773.31;5069889;28;20197;-44
2023/10/28 04:43:15;;;;;;;5.97;3.00;;;;;;;16.89;91.96;93775.31;5069760;28;20193;-43
2023/10/28 04:45:43;;;;;;;4.30;2.93;;;;;;;16.88;92.13;93773.69;5070037;28;20197;-43
2023/10/28 04:48:13;;;;;;;12.83;3.30;;;;;;;16.90;91.94;93779.47;5069672;28;20228;-45
2023/10/28 04:50:41;;;;;;;5.53;3.47;;;;;;;16.90;91.92;93771.72;5070073;28;20190;-43
2023/10/28 04:53:08;;;;;;;3.23;2.70;;;;;;;16.91;91.78;93774.09;5069761;28;20268;-44
2023/10/28 04:55:35;;;;;;;11.63;3.60;;;;;;;16.68;91.72;93753.03;5069861;28;20183;-44
2023/10/28 04:58:02;;;;;;;6.07;2.97;;;;;;;16.84;91.68;93781.06;5069604;28;20222;-44
2023/10/28 05:00:29;;;;;;;4.53;3.17;;;;;;;16.80;92.01;93790.19;5069689;28;20240;-43
2023/10/28 05:02:56;;;;;;;11.33;3.10;;;;;;;16.80;91.86;93790.19;5069532;28;20560;-44
2023/10/28 05:05:24;;;;;;;8.83;3.80;;;;;;;16.75;92.26;93790.78;5069673;28;20190;-45
2023/10/28 05:07:51;;;;;;;5.10;3.30;;;;;;;16.75;92.85;93798.53;5068685;28;20194;-44
2023/10/28 05:10:18;;;;;;;7.00;3.77;;;;;;;16.74;93.16;93791.75;5069304;28;20194;-44
2023/10/28 05:12:44;;;;;;;6.83;3.70;;;;;;;16.72;93.64;93803.25;5069393;28;20194;-43
2023/10/28 05:15:11;;;;;;;5.83;3.20;;;;;;;16.60;93.65;93787.56;5069155;28;20183;-44
2023/10/28 05:17:38;;;;;;;11.17;4.03;;;;;;;16.71;93.46;93802.47;5069518;28;20190;-44
2023/10/28 05:20:06;;;;;;;6.50;3.70;;;;;;;16.67;93.80;93809.03;5069541;28;20252;-43
2023/10/28 05:22:35;;;;;;;9.93;4.10;;;;;;;16.71;93.90;93817.97;5068634;28;20577;-44
2023/10/28 05:25:04;;;;;;;7.33;3.93;;;;;;;16.72;93.93;93824.75;5068872;28;20278;-43
2023/10/28 05:27:31;;;;;;;14.17;3.77;;;;;;;16.76;93.51;93828.53;5069394;28;20226;-44
2023/10/28 05:29:58;;;;;;;8.43;3.97;;;;;;;16.78;93.29;93823.94;5069155;28;20657;-44
2023/10/28 05:32:25;;;;;;;5.43;3.80;;;;;;;16.79;93.43;93841.00;5069123;28;20833;-44
2023/10/28 05:34:51;;;;;;;6.87;3.83;;;;;;;16.80;93.62;93847.78;5069188;28;20198;-44
2023/10/28 05:37:18;;;;;;;5.33;3.80;;;;;;;16.85;93.45;93839.47;5068614;28;20187;-44
2023/10/28 05:39:47;;;;;;;7.93;3.10;;;;;;;16.92;93.11;93847.19;5068573;28;20214;-43
2023/10/28 05:42:14;;;;;;;6.33;3.43;;;;;;;16.87;92.79;93834.88;5069153;28;20186;-45
2023/10/28 05:44:40;;;;;;;7.73;3.63;;;;;;;16.97;92.45;93858.53;5068752;28;20647;-44
2023/10/28 05:47:08;;;;;;;8.50;4.40;;;;;;;17.00;92.30;93858.13;5069244;28;20193;-44
2023/10/28 05:49:35;;;;;;;10.60;4.00;;;;;;;17.08;92.07;93864.91;5068849;28;20194;-44
2023/10/28 05:52:02;;;;;;;9.43;3.90;;;;;;;16.99;91.93;93842.84;5069487;28;20190;-44
2023/10/28 05:54:29;;;;;;;4.97;3.77;;;;;;;17.16;91.73;93858.75;5070705;28;20273;-44
2023/10/28 05:56:58;;;;;;;7.97;4.23;;;;;;;17.21;91.80;93869.28;5074127;28;20265;-43
2023/10/28 05:59:24;;;;;;;6.73;3.37;;;;;;;17.24;91.69;93880.03;5068671;28;20328;-45
2023/10/28 06:01:51;;;;;;;5.67;3.97;;;;;;;17.29;91.85;93887.19;5068946;28;20178;-43
2023/10/28 06:04:21;;;;;;;7.10;3.80;;;;;;;17.32;91.79;93886.78;5069016;28;20283;-45
2023/10/28 06:06:48;;;;;;;7.20;3.47;;;;;;;17.38;91.51;93893.72;5068141;28;20248;-44
2023/10/28 06:09:15;;;;;;;8.93;4.50;;;;;;;17.45;91.14;93894.53;5068468;28;20677;-42
2023/10/28 06:11:42;;;;;;;13.87;3.90;;;;;;;17.37;91.33;93881.81;5068598;28;20677;-45
2023/10/28 06:14:12;;;;;;;6.27;3.70;;;;;;;17.54;91.00;93892.56;5068582;28;20197;-44
2023/10/28 06:16:39;;;;;;;8.20;4.60;;;;;;;17.67;90.69;93894.31;5068284;28;20266;-44
2023/10/28 06:19:06;;;;;;;4.73;3.40;;;;;;;17.79;90.17;93896.13;5068661;28;20205;-44
2023/10/28 06:21:33;;;;;;;13.07;5.40;;;;;;;17.96;89.56;93912.03;5068145;28;20190;-45
2023/10/28 06:24:00;;;;;;;8.10;4.57;;;;;;;18.18;88.84;93914.38;5062530;28;20259;-44
2023/10/28 06:26:26;;;;;;;10.67;4.80;;;;;;;18.48;87.75;93917.22;5064992;28;20195;-45
2023/10/28 06:28:53;;;;;;;9.60;4.23;;;;;;;18.73;86.83;93919.94;5068079;28;20222;-44
2023/10/28 06:31:21;;;;;;;9.47;4.10;;;;;;;19.00;85.51;93936.19;5068202;28;20214;-45
2023/10/28 06:33:48;;;;;;;10.03;4.20;;;;;;;19.17;84.16;93926.91;5068159;28;20244;-45
2023/10/28 06:36:16;;;;;;;17.50;4.70;;;;;;;19.44;83.40;93940.47;5066320;28;20205;-43
2023/10/28 06:38:43;;;;;;;4.00;3.30;;;;;;;19.60;81.75;93952.09;5066141;28;20202;-43
2023/10/28 06:41:09;;;;;;;8.57;4.13;;;;;;;19.75;81.20;93944.06;5067619;28;20179;-44
2023/10/28 06:43:37;;;;;;;6.53;4.20;;;;;;;19.94;80.07;93943.06;5070388;28;20229;-45
2023/10/28 06:46:04;;;;;;;7.13;3.57;;;;;;;20.22;79.51;93947.81;5073580;28;20613;-45
2023/10/28 06:48:33;;;;;;;10.85;3.85;;;;;;;20.52;79.09;93947.13;5072207;28;20190;-46
2023/10/28 06:51:02;;;;;;;9.88;4.15;;;;;;;20.89;77.96;93960.88;5072529;28;20190;-45
2023/10/28 06:53:29;;;;;;;6.97;3.15;;;;;;;21.12;73.81;93972.41;5071724;28;20182;-45
2023/10/28 06:55:56;;;;;;;7.43;3.22;;;;;;;21.33;72.75;93977.16;5072357;28;20194;-45
2023/10/28 06:58:23;;;;;;;10.45;3.00;;;;;;;21.58;71.94;93978.78;5071703;28;20206;-45
2023/10/28 07:00:50;;;;;;;7.22;3.63;;;;;;;21.65;71.60;93982.09;5072311;28;20186;-46
2023/10/28 07:03:17;;;;;;;10.18;3.95;;;;;;;21.66;72.02;93971.44;5072023;28;20182;-45
2023/10/28 07:05:46;;;;;;;5.85;3.70;;;;;;;21.75;71.02;93977.91;5071953;28;20615;-45
2023/10/28 07:08:15;;;;;;;5.13;3.53;;;;;;;21.81;71.04;93984.06;5071943;28;20626;-46
2023/10/28 07:10:41;;;;;;;5.05;3.28;;;;;;;21.85;70.72;93990.41;5071713;28;20203;-45
2023/10/28 07:13:08;;;;;;;9.10;4.30;;;;;;;21.95;69.86;93988.03;5071785;28;20195;-45
2023/10/28 07:15:35;;;;;;;3.35;3.05;;;;;;;22.00;69.78;93992.56;5071728;28;20190;-46
2023/10/28 07:18:02;;;;;;;6.07;3.60;;;;;;;21.96;69.44;93975.78;5070918;28;20289;-45
2023/10/28 07:20:29;;;;;;;6.25;3.08;;;;;;;22.17;68.71;94003.91;5069370;28;20190;-46
2023/10/28 07:22:57;;;;;;;8.02;3.70;;;;;;;22.25;68.67;94011.41;5069132;28;20197;-46
2023/10/28 07:25:24;;;;;;;10.13;3.55;;;;;;;22.35;67.94;93997.78;5069164;28;20252;-44
2023/10/28 07:27:51;;;;;;;10.02;3.83;;;;;;;22.44;67.57;93998.25;5069234;28;20609;-44
2023/10/28 07:30:18;;;;;;;7.78;3.72;;;;;;;22.58;66.76;93993.56;5068919;28;20191;-45
2023/10/28 07:32:44;;;;;;;6.35;3.58;;;;;;;22.73;66.74;93989.47;5069121;28;20760;-46
2023/10/28 07:35:11;;;;;;;7.40;3.40;;;;;;;22.89;66.40;93995.00;5068669;28;20194;-48
2023/10/28 07:37:38;;;;;;;9.10;3.55;;;;;;;22.79;64.38;93979.94;5068935;28;20218;-45
2023/10/28 07:40:08;;;;;;;5.78;3.40;;;;;;;22.77;64.88;93995.81;5068287;28;20233;-44
2023/10/28 07:42:37;;;;;;;4.22;3.28;;;;;;;22.71;65.29;93998.53;5068792;28;20190;-44
2023/10/28 07:45:05;;;;;;;6.30;3.17;;;;;;;22.74;65.01;93991.06;5068457;28;20214;-45
2023/10/28 07:47:32;;;;;;;3.97;3.25;;;;;;;22.91;64.56;94000.81;5068912;28;20262;-45
2023/10/28 07:49:59;;;;;;;5.90;2.97;;;;;;;22.91;64.58;94006.03;5069158;28;20623;-44
2023/10/28 07:52:26;;;;;;;5.88;3.40;;;;;;;22.84;64.52;94005.31;5068037;28;20906;-45
2023/10/28 07:54:53;;;;;;;6.38;3.35;;;;;;;22.84;63.67;94005.31;5068175;28;20190;-44
2023/10/28 07:57:22;;;;;;;9.63;3.53;;;;;;;22.71;64.77;94004.56;5068630;28;20194;-45
2023/10/28 07:59:49;;;;;;;5.13;3.13;;;;;;;22.61;65.14;94019.19;5068452;28;20310;-44
2023/10/28 08:02:17;;;;;;;7.15;3.35;;;;;;;22.52;65.69;94018.75;5068410;28;20484;-44
2023/10/28 08:04:44;;;;;;;6.28;4.00;;;;;;;22.47;65.79;94021.25;5067910;28;20289;-44
2023/10/28 08:07:10;;;;;;;4.55;3.10;;;;;;;22.42;65.97;94024.53;5067707;28;20293;-45
2023/10/28 08:09:37;;;;;;;7.55;3.38;;;;;;;22.39;66.68;94024.97;5068091;28;20226;-44
2023/10/28 08:12:05;;;;;;;5.53;3.65;;;;;;;22.34;66.37;94022.28;5068227;28;20195;-44
2023/10/28 08:14:34;;;;;;;5.28;3.50;;;;;;;22.22;66.54;93998.81;5067609;28;20263;-44
2023/10/28 08:17:01;;;;;;;6.63;3.40;;;;;;;22.29;66.74;94014.34;5070388;28;20190;-44
2023/10/28 08:19:29;;;;;;;5.43;2.88;;;;;;;22.29;66.30;94017.75;5070201;28;20222;-45
2023/10/28 08:21:56;;;;;;;6.50;3.45;;;;;;;22.32;66.30;94008.66;5070601;28;20186;-45
2023/10/28 08:24:23;;;;;;;4.75;3.50;;;;;;;22.38;66.17;94012.97;5071120;28;20194;-45
2023/10/28 08:26:50;;;;;;;9.27;3.15;;;;;;;22.46;65.63;94015.25;5070734;28;20268;-44
2023/10/28 08:29:17;;;;;;;6.60;2.92;;;;;;;22.48;64.92;94010.59;5076566;28;20205;-45
2023/10/28 08:31:45;;;;;;;10.20;3.72;;;;;;;22.31;65.93;94007.09;5077655;28;20190;-44
2023/10/28 08:34:13;;;;;;;16.23;3.67;;;;;;;22.34;66.24;94029.28;5076480;28;20210;-45
2023/10/28 08:36:41;;;;;;;10.43;3.20;;;;;;;22.35;65.99;94026.44;5071940;28;20278;-43
2023/10/28 08:39:08;;;;;;;4.28;3.15;;;;;;;22.33;65.94;94018.09;5069915;28;20222;-45
2023/10/28 08:41:36;;;;;;;9.05;3.40;;;;;;;22.32;66.17;94026.09;5071185;28;20183;-45
2023/10/28 08:44:07;;;;;;;5.40;3.53;;;;;;;22.39;66.28;94019.78;5070467;28;20197;-45
2023/10/28 08:46:37;;;;;;;6.65;3.70;;;;;;;22.44;65.74;94025.09;5070907;28;20183;-43
2023/10/28 08:49:08;;;;;;;5.50;2.85;;;;;;;22.56;65.54;94032.91;5070660;28;20184;-44
2023/10/28 08:51:37;;;;;;;9.80;4.10;;;;;;;22.70;65.00;94023.03;5071066;28;20734;-44
2023/10/28 08:54:05;;;;;;;5.82;3.53;;;;;;;22.82;64.29;94023.03;5072162;28;20183;-45
2023/10/28 08:56:35;;;;;;;7.25;2.95;;;;;;;22.97;62.48;94018.13;5070472;28;20194;-44
2023/10/28 08:59:02;;;;;;;12.55;3.50;;;;;;;22.91;62.30;94019.06;5069635;28;20226;-44
2023/10/28 09:01:29;;;;;;;5.55;3.10;;;;;;;22.95;62.87;94023.59;5069778;28;20653;-44
2023/10/28 09:04:01;;;;;;;9.10;3.45;;;;;;;23.11;62.61;94036.94;5069120;28;20197;-43
2023/10/28 09:06:30;;;;;;;11.18;3.50;;;;;;;23.22;62.22;94025.66;5069256;28;20193;-44
2023/10/28 09:08:57;;;;;;;8.05;3.20;;;;;;;23.12;61.72;94026.25;5069745;28;20719;-44
2023/10/28 09:11:25;;;;;;;8.93;3.45;;;;;;;23.32;61.61;94038.91;5069267;28;20282;-45
2023/10/28 09:13:52;;;;;;;7.65;3.40;;;;;;;23.41;61.68;94027.06;5068818;28;20695;-44
2023/10/28 09:16:19;;;;;;;4.18;2.15;;;;;;;23.49;57.81;94034.53;5069478;28;20190;-45
2023/10/28 09:18:49;;;;;;;8.50;3.00;;;;;;;23.61;57.50;94025.84;5069118;28;20642;-45
2023/10/28 09:21:15;;;;;;;7.00;2.47;;;;;;;23.65;57.38;94027.00;5069228;28;20204;-44
2023/10/28 09:23:44;;;;;;;4.32;2.13;;;;;;;23.71;57.04;94026.84;5069519;28;20216;-45
2023/10/28 09:26:10;;;;;;;8.27;2.33;;;;;;;23.80;56.44;94029.09;5069194;28;20275;-45
2023/10/28 09:28:44;;;;;;;5.95;2.00;;;;;;;23.93;55.64;94023.56;5069027;28;20744;-44
2023/10/28 09:31:11;;;;;;;6.45;2.45;;;;;;;23.98;55.08;94019.19;5068905;28;20187;-45
2023/10/28 09:33:38;;;;;;;8.35;2.38;;;;;;;24.08;55.53;94028.22;5069349;28;20198;-45
2023/10/28 09:36:08;;;;;;;4.05;2.08;;;;;;;24.21;55.66;94026.06;5069429;28;20186;-45
2023/10/28 09:38:36;;;;;;;4.88;2.35;;;;;;;24.26;54.10;94020.91;5069360;28;20194;-43
2023/10/28 09:41:07;;;;;;;7.32;2.50;;;;;;;24.35;52.80;94021.31;5068747;28;20230;-44
2023/10/28 09:43:34;;;;;;;3.38;1.80;;;;;;;24.39;52.92;94027.66;5069489;28;20189;-44
2023/10/28 09:46:01;;;;;;;3.13;2.00;;;;;;;24.46;51.45;94017.06;5068702;28;20193;-44
2023/10/28 09:48:33;;;;;;;5.03;2.00;;;;;;;24.58;51.83;94009.13;5069389;28;20187;-43
2023/10/28 09:51:00;;;;;;;6.60;2.15;;;;;;;24.65;51.94;94013.13;5068881;28;20663;-44
2023/10/28 09:53:31;;;;;;;5.35;1.95;;;;;;;24.81;48.92;94000.25;5068877;28;20285;-44
2023/10/28 09:55:58;;;;;;;7.30;1.90;;;;;;;24.85;49.66;94014.44;5068715;28;20190;-44
2023/10/28 09:58:33;;;;;;;5.10;1.90;;;;;;;24.75;50.52;94021.13;5068704;28;20182;-43
2023/10/28 10:01:07;;;;;;;6.38;1.85;;;;;;;24.74;48.14;94010.88;5068511;28;20214;-44
2023/10/28 10:03:51;;;;;;;6.90;2.20;;;;;;;24.85;48.14;94012.63;5068764;28;20202;-45
2023/10/28 10:06:19;;;;;;;3.10;1.90;;;;;;;24.88;48.70;94003.50;5068827;28;20668;-44
2023/10/28 10:08:49;;;;;;;6.10;2.13;;;;;;;24.85;48.60;94002.16;5069556;28;20182;-45
2023/10/28 10:11:22;;;;;;;10.00;1.83;;;;;;;24.87;47.89;93996.66;5068437;28;20252;-44
2023/10/28 10:13:55;;;;;;;3.40;1.90;;;;;;;24.93;47.09;93999.13;5068842;28;20194;-45
2023/10/28 10:16:35;;;;;;;7.28;2.15;;;;;;;24.97;46.66;93994.19;5051266;28;20186;-44
2023/10/28 10:19:11;;;;;;;8.23;1.60;;;;;;;24.98;46.32;93988.72;5071613;28;20570;-44
2023/10/28 10:21:39;;;;;;;4.72;2.00;;;;;;;24.95;45.69;93978.72;5071146;28;20190;-45
2023/10/28 10:24:07;;;;;;;9.18;1.98;;;;;;;25.01;46.63;93990.84;5072027;28;20194;-44
2023/10/28 10:26:36;;;;;;;3.70;1.73;;;;;;;25.04;46.15;93979.06;5072328;28;20186;-45
2023/10/28 10:29:06;;;;;;;5.60;1.83;;;;;;;25.11;45.86;93990.19;5081154;28;20662;-44
2023/10/28 10:31:39;;;;;;;11.45;1.83;;;;;;;25.10;46.15;93986.00;5093121;28;20205;-46
2023/10/28 10:34:08;;;;;;;5.05;1.88;;;;;;;24.90;45.80;93956.94;5092451;28;20193;-45
2023/10/28 10:36:43;;;;;;;2.70;1.73;;;;;;;25.12;45.75;93983.13;5092463;28;20190;-45
2023/10/28 10:39:15;;;;;;;4.65;1.65;;;;;;;25.05;45.11;93954.53;5092622;28;20196;-45
2023/10/28 10:41:43;;;;;;;3.70;1.70;;;;;;;25.25;44.59;93982.75;5092538;28;20577;-45
2023/10/28 10:44:25;;;;;;;5.53;2.30;;;;;;;25.26;45.04;93986.97;5091996;28;20200;-44
2023/10/28 10:47:01;;;;;;;5.07;1.73;;;;;;;25.26;46.22;93979.09;5092207;28;20269;-45
2023/10/28 10:49:30;;;;;;;2.95;1.77;;;;;;;25.29;46.21;93983.84;5092378;28;20205;-46
2023/10/28 10:52:00;;;;;;;3.33;1.60;;;;;;;25.28;46.81;93977.81;5092583;28;20201;-45
2023/10/28 10:54:32;;;;;;;1.65;1.55;;;;;;;25.30;46.93;93971.53;5092177;28;20288;-45
2023/10/28 10:56:59;;;;;;;5.20;2.08;;;;;;;25.22;47.19;93967.56;5090932;28;20269;-45
2023/10/28 10:59:38;;;;;;;5.22;2.20;;;;;;;25.34;47.82;93973.41;5090277;28;20201;-46
2023/10/28 11:02:06;;;;;;;3.40;2.10;;;;;;;25.44;47.53;93981.38;5092089;28;20201;-45
2023/10/28 11:04:36;;;;;;;4.18;1.60;;;;;;;25.44;47.46;93976.16;5093983;28;20213;-47
2023/10/28 11:07:04;;;;;;;4.10;2.00;;;;;;;25.45;47.32;93976.94;5094747;28;20193;-44
2023/10/28 11:09:33;;;;;;;5.60;2.13;;;;;;;25.46;46.86;93981.13;5092188;28;20731;-45
2023/10/28 11:12:01;;;;;;;1.75;1.35;;;;;;;25.35;46.77;93975.00;5092092;28;20296;-45
2023/10/28 11:14:30;;;;;;;4.78;1.85;;;;;;;25.35;46.39;93972.41;5090438;28;20194;-45
2023/10/28 11:17:00;;;;;;;2.58;1.80;;;;;;;25.39;46.18;93973.47;5091194;28;20280;-46
2023/10/28 11:19:28;;;;;;;5.63;1.80;;;;;;;25.41;45.84;93975.84;5090292;28;20587;-45
2023/10/28 11:21:55;;;;;;;3.10;1.65;;;;;;;25.27;45.08;93959.75;5091805;28;20280;-47
2023/10/28 11:24:24;;;;;;;2.58;1.70;;;;;;;25.34;45.32;93976.03;5090560;28;20215;-45
2023/10/28 11:26:53;;;;;;;4.30;2.03;;;;;;;25.30;45.26;93982.00;5091039;28;20716;-44
2023/10/28 11:29:27;;;;;;;4.90;1.80;;;;;;;25.24;45.69;93976.72;5089491;28;20649;-46
2023/10/28 11:31:56;;;;;;;6.13;2.00;;;;;;;25.30;44.88;93966.28;5091785;28;20265;-45
2023/10/28 11:34:26;;;;;;;2.17;1.50;;;;;;;25.19;44.74;93960.19;5089905;28;20191;-45